Mc Donald, Pennsylvania
Current Conditions -  °F | °C
As of 5:51 PM on Monday 22 Dec 2014 (Local Time) from KPIT Reporting Station
Overcast Overcast  
Wind Chill: 35°   Ceiling: 12000
Heat Index: 40°   Visibility: 9mi
Dew Point: 31°   Wind: 7mph
Humidity: 70%   Direction: 100°E
Pressure: 29.98"   Gusts: NA
Location:  40.3662°N, 80.2739°W
Report Text: KPIT 222251Z 10006KT 9SM BKN120 OVC250 04/M01 A2998 RMK AO2 SLP172 T00441006
Loading
Personal Weather Stations






























Interactive Weather Map New forecast layout! Learn more

10-Day Weather Forecast

Advertisements
Track Severe Weather on mobile